Time;durP1;ratioP1;P1;durP2;ratioP2;P2;SDS_P1;SDS_P2;PMS_P1;PMS_P2;Temp;Humidity;BMP_temperature;BMP_pressure;BME280_temperature;BME280_humidity;BME280_pressure;Samples;Min_cycle;Max_cycle;Signal;HPM_P1;HPM_P2
2021/12/13 00:01:32;;;;;;;23.88;14.95;;;;;;;;;;5064794;28;20061;-68
2021/12/13 00:04:06;;;;;;;23.40;15.82;;;;;;;;;;5068995;28;20129;-68
2021/12/13 00:06:43;;;;;;;25.92;15.60;;;;;;;;;;5064828;28;20052;-68
2021/12/13 00:09:11;;;;;;;27.08;15.23;;;;;;;;;;5073843;28;20053;-68
2021/12/13 00:11:40;;;;;;;20.92;13.60;;;;;;;;;;5074289;28;20133;-69
2021/12/13 00:14:08;;;;;;;24.52;14.90;;;;;;;;;;5074767;28;20057;-69
2021/12/13 00:16:36;;;;;;;27.55;14.73;;;;;;;;;;5074140;28;20060;-68
2021/12/13 00:19:06;;;;;;;28.67;14.80;;;;;;;;;;5059711;28;20064;-68
2021/12/13 00:21:38;;;;;;;25.45;14.18;;;;;;;;;;5054385;28;20531;-69
2021/12/13 00:24:07;;;;;;;29.73;14.77;;;;;;;;;;5067596;28;20497;-70
2021/12/13 00:26:35;;;;;;;27.73;12.73;;;;;;;;;;5073980;28;20385;-68
2021/12/13 00:29:09;;;;;;;28.70;13.43;;;;;;;;;;5072898;28;20049;-69
2021/12/13 00:31:46;;;;;;;22.00;13.20;;;;;;;;;;5074413;28;20619;-68
2021/12/13 00:34:20;;;;;;;22.00;12.68;;;;;;;;;;5073795;28;20057;-69
2021/12/13 00:36:51;;;;;;;24.75;13.98;;;;;;;;;;5074546;28;20051;-68
2021/12/13 00:39:23;;;;;;;27.90;14.70;;;;;;;;;;5079415;28;20144;-69
2021/12/13 00:41:50;;;;;;;27.63;13.50;;;;;;;;;;5074122;28;20148;-69
2021/12/13 00:44:22;;;;;;;27.52;12.77;;;;;;;;;;5073772;28;20057;-69
2021/12/13 00:46:50;;;;;;;32.55;14.07;;;;;;;;;;5074587;28;20063;-69
2021/12/13 00:49:18;;;;;;;22.30;12.07;;;;;;;;;;5073728;28;20092;-68
2021/12/13 00:51:46;;;;;;;30.95;12.68;;;;;;;;;;5074080;28;20386;-69
2021/12/13 00:54:14;;;;;;;21.27;12.38;;;;;;;;;;5071828;28;20053;-68
2021/12/13 00:57:03;;;;;;;23.65;13.27;;;;;;;;;;5073890;28;20120;-68
2021/12/13 00:59:39;;;;;;;21.20;11.70;;;;;;;;;;5051633;28;20049;-69
2021/12/13 01:02:12;;;;;;;21.38;11.27;;;;;;;;;;5058814;28;20049;-69
2021/12/13 01:04:44;;;;;;;18.15;10.55;;;;;;;;;;5072849;28;20562;-69
2021/12/13 01:07:34;;;;;;;20.83;9.90;;;;;;;;;;5069846;28;20057;-68
2021/12/13 01:10:18;;;;;;;20.20;10.25;;;;;;;;;;5078411;28;20483;-69
2021/12/13 01:12:47;;;;;;;17.15;9.65;;;;;;;;;;5078349;28;20064;-69
2021/12/13 01:15:37;;;;;;;22.40;9.73;;;;;;;;;;5072234;28;20075;-70
2021/12/13 01:21:01;;;;;;;15.80;8.93;;;;;;;;;;5072628;28;20147;-68
2021/12/13 01:26:37;;;;;;;14.32;8.73;;;;;;;;;;5046097;28;20149;-69
2021/12/13 01:29:07;;;;;;;19.17;9.45;;;;;;;;;;5051679;28;20057;-69
2021/12/13 01:31:36;;;;;;;17.35;9.55;;;;;;;;;;5059336;28;20923;-69
2021/12/13 01:34:03;;;;;;;15.65;9.15;;;;;;;;;;5091246;28;20056;-69
2021/12/13 01:36:41;;;;;;;19.60;10.40;;;;;;;;;;5093054;28;20056;-69
2021/12/13 01:39:09;;;;;;;17.20;8.82;;;;;;;;;;5086013;28;20157;-69
2021/12/13 01:41:38;;;;;;;13.73;8.07;;;;;;;;;;5072530;28;20059;-69
2021/12/13 01:44:08;;;;;;;14.98;8.48;;;;;;;;;;5074605;28;20152;-71
2021/12/13 01:46:36;;;;;;;12.65;7.47;;;;;;;;;;5077542;28;20053;-69
2021/12/13 01:49:03;;;;;;;15.95;7.55;;;;;;;;;;5072867;28;20061;-69
2021/12/13 01:51:33;;;;;;;12.48;6.70;;;;;;;;;;5072807;28;20143;-69
2021/12/13 01:54:02;;;;;;;14.90;6.43;;;;;;;;;;5074850;28;20099;-69
2021/12/13 01:56:46;;;;;;;14.32;6.88;;;;;;;;;;5076034;28;20052;-69
2021/12/13 01:59:43;;;;;;;12.90;6.45;;;;;;;;;;5072430;28;20128;-69
2021/12/13 02:02:10;;;;;;;10.27;6.07;;;;;;;;;;5072631;28;20059;-69
2021/12/13 02:04:38;;;;;;;10.35;5.57;;;;;;;;;;5070386;28;20135;-69
2021/12/13 02:07:04;;;;;;;12.48;6.90;;;;;;;;;;5077000;28;20504;-69
2021/12/13 02:09:42;;;;;;;12.82;6.68;;;;;;;;;;5092443;28;20568;-69
2021/12/13 02:12:13;;;;;;;15.23;6.20;;;;;;;;;;5078604;28;20049;-69
2021/12/13 02:14:47;;;;;;;8.25;6.55;;;;;;;;;;5072029;28;20473;-69
2021/12/13 02:17:16;;;;;;;12.13;6.20;;;;;;;;;;5073026;28;20064;-69
2021/12/13 02:19:51;;;;;;;13.50;6.85;;;;;;;;;;5072850;28;20049;-70
2021/12/13 02:22:25;;;;;;;9.77;6.13;;;;;;;;;;5073199;28;20059;-69
2021/12/13 02:24:53;;;;;;;11.57;6.53;;;;;;;;;;5072948;28;20084;-69
2021/12/13 02:27:22;;;;;;;13.68;7.07;;;;;;;;;;5082635;28;20055;-70
2021/12/13 02:29:49;;;;;;;14.40;6.60;;;;;;;;;;5081050;28;20057;-69
2021/12/13 02:32:15;;;;;;;18.45;8.80;;;;;;;;;;5073142;28;20060;-69
2021/12/13 02:34:42;;;;;;;11.85;7.05;;;;;;;;;;5072445;28;20053;-68
2021/12/13 02:37:10;;;;;;;12.65;8.35;;;;;;;;;;5072624;28;20072;-68
2021/12/13 02:39:44;;;;;;;16.90;8.80;;;;;;;;;;5080477;28;20089;-68
2021/12/13 02:42:11;;;;;;;19.35;8.63;;;;;;;;;;5092728;28;20059;-69
2021/12/13 02:44:40;;;;;;;16.85;9.02;;;;;;;;;;5075648;28;20060;-69
2021/12/13 02:47:19;;;;;;;16.02;9.55;;;;;;;;;;5074554;28;20045;-70
2021/12/13 02:49:45;;;;;;;16.73;10.23;;;;;;;;;;5075248;28;20060;-71
2021/12/13 02:52:14;;;;;;;14.38;10.05;;;;;;;;;;5075808;28;20053;-69
2021/12/13 02:54:42;;;;;;;18.85;10.75;;;;;;;;;;5076170;28;20574;-69
2021/12/13 02:57:08;;;;;;;19.13;10.70;;;;;;;;;;5076721;28;20492;-70
2021/12/13 02:59:36;;;;;;;19.63;10.20;;;;;;;;;;5075458;28;20060;-68
2021/12/13 03:02:11;;;;;;;16.63;11.13;;;;;;;;;;5074983;28;20049;-69
2021/12/13 03:04:37;;;;;;;;;;;;;;;;;;5075902;28;20096;-69
2021/12/13 03:07:09;;;;;;;17.42;10.60;;;;;;;;;;5082203;28;45354;-70
2021/12/13 03:09:37;;;;;;;18.83;11.45;;;;;;;;;;5096193;28;20052;-71
2021/12/13 03:12:05;;;;;;;23.70;12.80;;;;;;;;;;5096084;28;20052;-70
2021/12/13 03:14:34;;;;;;;22.40;12.63;;;;;;;;;;5075427;28;20059;-69
2021/12/13 03:17:05;;;;;;;19.63;12.38;;;;;;;;;;5076690;28;20077;-70
2021/12/13 03:19:41;;;;;;;19.65;12.75;;;;;;;;;;5075909;28;20501;-70
2021/12/13 03:22:26;;;;;;;25.00;14.90;;;;;;;;;;5075858;28;20049;-70
2021/12/13 03:25:11;;;;;;;23.87;14.60;;;;;;;;;;5075613;28;20082;-69
2021/12/13 03:27:51;;;;;;;24.27;14.40;;;;;;;;;;5075352;28;20592;-70
2021/12/13 03:30:19;;;;;;;26.33;15.40;;;;;;;;;;5076337;28;20056;-69
2021/12/13 03:32:52;;;;;;;24.83;15.52;;;;;;;;;;5074718;28;20060;-70
2021/12/13 03:35:21;;;;;;;25.65;15.48;;;;;;;;;;5074821;28;20053;-70
2021/12/13 03:37:54;;;;;;;27.63;14.82;;;;;;;;;;5074742;28;20067;-69
2021/12/13 03:40:21;;;;;;;22.65;16.33;;;;;;;;;;5075228;28;20555;-69
2021/12/13 03:42:53;;;;;;;27.35;16.17;;;;;;;;;;5075250;28;20049;-70
2021/12/13 03:45:24;;;;;;;25.48;16.90;;;;;;;;;;5075513;28;20103;-71
2021/12/13 03:47:51;;;;;;;25.90;15.93;;;;;;;;;;5075084;28;20108;-71
2021/12/13 03:50:20;;;;;;;31.73;18.40;;;;;;;;;;5074849;28;20060;-69
2021/12/13 03:52:47;;;;;;;26.20;17.23;;;;;;;;;;5067400;28;20056;-70
2021/12/13 03:55:16;;;;;;;26.98;18.35;;;;;;;;;;5072831;28;20075;-70
2021/12/13 03:57:45;;;;;;;28.35;18.10;;;;;;;;;;5073770;28;20057;-69
2021/12/13 04:00:12;;;;;;;26.50;17.35;;;;;;;;;;5074278;28;20084;-69
2021/12/13 04:02:40;;;;;;;26.40;18.38;;;;;;;;;;5070026;28;20497;-70
2021/12/13 04:05:17;;;;;;;24.92;17.48;;;;;;;;;;5080224;28;20048;-70
2021/12/13 04:07:49;;;;;;;27.45;18.00;;;;;;;;;;5095704;28;20091;-69
2021/12/13 04:10:17;;;;;;;26.40;18.42;;;;;;;;;;5095344;28;20052;-69
2021/12/13 04:12:49;;;;;;;29.13;18.38;;;;;;;;;;5093770;28;20056;-70
2021/12/13 04:15:18;;;;;;;32.97;18.48;;;;;;;;;;5070881;28;20096;-70
2021/12/13 04:17:58;;;;;;;27.88;17.77;;;;;;;;;;5059448;28;20255;-70
2021/12/13 04:20:27;;;;;;;27.35;18.08;;;;;;;;;;5074028;28;20082;-70
2021/12/13 04:22:54;;;;;;;25.85;16.80;;;;;;;;;;5069547;28;20061;-69
2021/12/13 04:25:23;;;;;;;23.50;16.90;;;;;;;;;;5054416;28;20055;-70
2021/12/13 04:28:04;;;;;;;27.73;19.00;;;;;;;;;;5067378;28;20053;-69
2021/12/13 04:30:34;;;;;;;24.25;17.60;;;;;;;;;;5073312;28;20045;-70
2021/12/13 04:33:11;;;;;;;23.15;17.42;;;;;;;;;;5074211;28;20053;-69
2021/12/13 04:35:40;;;;;;;24.85;17.35;;;;;;;;;;5074524;28;20053;-69
2021/12/13 04:38:07;;;;;;;24.38;17.00;;;;;;;;;;5073953;28;20136;-70
2021/12/13 04:40:38;;;;;;;21.38;16.48;;;;;;;;;;5074053;28;20508;-69
2021/12/13 04:43:12;;;;;;;28.15;17.52;;;;;;;;;;5074086;28;20053;-71
2021/12/13 04:45:42;;;;;;;26.27;16.98;;;;;;;;;;5074182;28;20080;-72
2021/12/13 04:48:10;;;;;;;24.77;16.35;;;;;;;;;;5081665;28;20143;-71
2021/12/13 04:50:39;;;;;;;24.95;16.80;;;;;;;;;;5075913;28;20059;-69
2021/12/13 04:53:14;;;;;;;24.83;15.70;;;;;;;;;;5074197;28;20060;-69
2021/12/13 04:55:43;;;;;;;24.58;16.00;;;;;;;;;;5074119;28;20049;-70
2021/12/13 04:58:11;;;;;;;21.70;15.77;;;;;;;;;;5073572;28;20049;-69
2021/12/13 05:00:39;;;;;;;21.05;15.38;;;;;;;;;;5073934;28;20501;-70
2021/12/13 05:03:07;;;;;;;21.50;15.05;;;;;;;;;;5073730;28;20060;-70
2021/12/13 05:05:38;;;;;;;19.70;14.00;;;;;;;;;;5084382;28;20056;-70
2021/12/13 05:08:06;;;;;;;18.52;14.48;;;;;;;;;;5088535;28;20063;-69
2021/12/13 05:10:33;;;;;;;20.60;14.82;;;;;;;;;;5073514;28;20140;-70
2021/12/13 05:13:01;;;;;;;20.10;14.30;;;;;;;;;;5079325;28;20049;-72
2021/12/13 05:15:29;;;;;;;21.60;14.40;;;;;;;;;;5076780;28;20061;-71
2021/12/13 05:18:01;;;;;;;16.67;13.88;;;;;;;;;;5073406;28;20130;-69
2021/12/13 05:20:32;;;;;;;20.85;15.43;;;;;;;;;;5072928;28;20533;-71
2021/12/13 05:23:00;;;;;;;20.15;14.43;;;;;;;;;;5073190;28;20477;-70
2021/12/13 05:25:31;;;;;;;21.10;15.13;;;;;;;;;;5074946;28;20053;-70
2021/12/13 05:28:07;;;;;;;21.80;14.35;;;;;;;;;;5073509;28;20056;-70
2021/12/13 05:30:33;;;;;;;;;;;;;;;;;;5073839;28;20596;-70
2021/12/13 05:33:02;;;;;;;21.85;14.73;;;;;;;;;;5072479;28;42243;-70
2021/12/13 05:35:31;;;;;;;19.77;14.27;;;;;;;;;;5073596;28;20061;-70
2021/12/13 05:37:59;;;;;;;21.42;14.80;;;;;;;;;;5072986;28;20049;-70
2021/12/13 05:40:29;;;;;;;22.90;14.88;;;;;;;;;;5072746;28;20480;-70
2021/12/13 05:42:58;;;;;;;20.85;13.77;;;;;;;;;;5072923;28;20136;-70
2021/12/13 05:45:30;;;;;;;20.27;14.27;;;;;;;;;;5073081;28;20523;-70
2021/12/13 05:48:10;;;;;;;19.23;14.70;;;;;;;;;;5072277;28;20055;-70
2021/12/13 05:50:45;;;;;;;20.55;13.60;;;;;;;;;;5072780;28;20507;-71
2021/12/13 05:53:13;;;;;;;21.33;14.27;;;;;;;;;;5073096;28;20576;-70
2021/12/13 05:55:54;;;;;;;18.85;13.43;;;;;;;;;;5073319;28;20059;-71
2021/12/13 05:58:48;;;;;;;18.08;13.75;;;;;;;;;;5071955;28;20041;-70
2021/12/13 06:01:30;;;;;;;20.10;13.95;;;;;;;;;;5069561;28;20425;-71
2021/12/13 06:04:15;;;;;;;18.45;14.02;;;;;;;;;;5055999;28;20084;-72
2021/12/13 06:06:53;;;;;;;18.83;14.00;;;;;;;;;;5058106;28;20424;-70
2021/12/13 06:09:41;;;;;;;21.55;15.38;;;;;;;;;;5072786;28;20061;-70
2021/12/13 06:12:10;;;;;;;19.00;14.05;;;;;;;;;;5052555;28;20039;-71
2021/12/13 06:14:36;;;;;;;19.83;14.88;;;;;;;;;;5053236;28;20070;-72
2021/12/13 06:17:18;;;;;;;26.20;15.63;;;;;;;;;;5062829;28;20063;-71
2021/12/13 06:19:55;;;;;;;26.00;14.65;;;;;;;;;;5057547;28;20132;-70
2021/12/13 06:22:23;;;;;;;20.63;14.35;;;;;;;;;;5069873;28;20049;-71
2021/12/13 06:25:00;;;;;;;21.60;14.00;;;;;;;;;;5077769;28;20060;-71
2021/12/13 06:27:28;;;;;;;22.80;15.10;;;;;;;;;;5076491;28;20089;-70
2021/12/13 06:30:02;;;;;;;21.65;14.65;;;;;;;;;;5073105;28;20057;-71
2021/12/13 06:32:29;;;;;;;25.13;14.43;;;;;;;;;;5076129;28;20053;-71
2021/12/13 06:34:55;;;;;;;19.58;15.50;;;;;;;;;;5074853;28;20088;-71
2021/12/13 06:37:23;;;;;;;19.70;14.68;;;;;;;;;;5061916;28;20076;-71
2021/12/13 06:39:49;;;;;;;21.17;14.43;;;;;;;;;;5074027;28;20061;-71
2021/12/13 06:42:15;;;;;;;23.15;15.18;;;;;;;;;;5076048;28;20041;-70
2021/12/13 06:44:44;;;;;;;23.55;15.05;;;;;;;;;;5075163;28;20497;-70
2021/12/13 06:47:16;;;;;;;23.25;15.07;;;;;;;;;;5091609;28;20049;-71
2021/12/13 06:49:48;;;;;;;21.70;14.80;;;;;;;;;;5071755;28;20057;-69
2021/12/13 06:52:14;;;;;;;20.60;14.15;;;;;;;;;;5067806;28;20049;-68
2021/12/13 06:54:40;;;;;;;23.75;16.10;;;;;;;;;;5066627;28;20080;-68
2021/12/13 06:57:12;;;;;;;20.88;14.55;;;;;;;;;;5067994;28;20057;-70
2021/12/13 06:59:52;;;;;;;24.27;15.45;;;;;;;;;;5074142;28;20147;-69
2021/12/13 07:02:18;;;;;;;20.65;14.20;;;;;;;;;;5075094;28;20424;-70
2021/12/13 07:05:05;;;;;;;24.50;15.05;;;;;;;;;;5072679;28;20519;-69
2021/12/13 07:07:51;;;;;;;30.52;15.95;;;;;;;;;;5071281;28;20041;-69
2021/12/13 07:10:19;;;;;;;26.33;15.00;;;;;;;;;;5062964;28;20053;-70
2021/12/13 07:12:53;;;;;;;22.50;15.15;;;;;;;;;;5073088;28;20060;-70
2021/12/13 07:15:22;;;;;;;24.20;15.07;;;;;;;;;;5072014;28;20493;-70
2021/12/13 07:17:59;;;;;;;22.63;14.95;;;;;;;;;;5072407;28;20539;-70
2021/12/13 07:20:34;;;;;;;21.83;13.93;;;;;;;;;;5074794;28;20053;-70
2021/12/13 07:23:00;;;;;;;22.15;13.93;;;;;;;;;;5073257;28;20184;-70
2021/12/13 07:25:33;;;;;;;22.52;14.88;;;;;;;;;;5072512;28;20053;-70
2021/12/13 07:27:59;;;;;;;24.77;14.70;;;;;;;;;;5072083;28;20052;-69
2021/12/13 07:30:28;;;;;;;25.00;15.43;;;;;;;;;;5072010;28;20523;-69
2021/12/13 07:33:00;;;;;;;26.45;14.88;;;;;;;;;;5070648;28;20079;-69
2021/12/13 07:35:38;;;;;;;22.13;14.27;;;;;;;;;;5073106;28;20052;-70
2021/12/13 07:38:16;;;;;;;25.33;14.60;;;;;;;;;;5073653;28;20052;-70
2021/12/13 07:40:50;;;;;;;21.90;14.75;;;;;;;;;;5065875;28;20067;-70
2021/12/13 07:43:23;;;;;;;23.65;14.68;;;;;;;;;;5075158;28;20090;-72
2021/12/13 07:45:55;;;;;;;24.42;15.52;;;;;;;;;;5064702;28;20059;-70
2021/12/13 07:48:24;;;;;;;27.63;15.65;;;;;;;;;;5074791;28;20061;-71
2021/12/13 07:51:00;;;;;;;23.73;14.82;;;;;;;;;;5070157;28;20080;-73
2021/12/13 07:53:26;;;;;;;;;;;;;;;;;;5069755;28;20097;-70
2021/12/13 07:55:52;;;;;;;23.38;15.43;;;;;;;;;;5065543;28;44362;-71
2021/12/13 07:58:39;;;;;;;28.05;15.45;;;;;;;;;;5072923;28;20059;-71
2021/12/13 08:01:11;;;;;;;28.95;15.80;;;;;;;;;;5077730;28;20562;-72
2021/12/13 08:04:04;;;;;;;24.63;14.98;;;;;;;;;;5073669;28;20052;-72
2021/12/13 08:06:33;;;;;;;22.80;14.57;;;;;;;;;;5070446;28;20049;-71
2021/12/13 08:09:03;;;;;;;23.40;15.50;;;;;;;;;;5072590;28;20159;-71
2021/12/13 08:11:32;;;;;;;22.25;14.65;;;;;;;;;;5072330;28;20597;-72
2021/12/13 08:13:59;;;;;;;31.42;16.25;;;;;;;;;;5068708;28;20080;-70
2021/12/13 08:16:33;;;;;;;27.98;16.02;;;;;;;;;;5067749;28;20053;-71
2021/12/13 08:19:20;;;;;;;25.55;15.90;;;;;;;;;;5072069;28;20144;-71
2021/12/13 08:21:57;;;;;;;24.42;16.08;;;;;;;;;;5072363;28;20056;-70
2021/12/13 08:24:29;;;;;;;27.58;16.88;;;;;;;;;;5071393;28;20527;-71
2021/12/13 08:26:58;;;;;;;26.08;16.15;;;;;;;;;;5059686;28;20063;-72
2021/12/13 08:29:31;;;;;;;25.45;15.07;;;;;;;;;;5073051;28;20056;-71
2021/12/13 08:32:03;;;;;;;27.13;16.20;;;;;;;;;;5072409;28;20599;-71
2021/12/13 08:34:50;;;;;;;26.08;16.48;;;;;;;;;;5067849;28;20513;-72
2021/12/13 08:37:19;;;;;;;24.48;15.07;;;;;;;;;;5070246;28;20049;-72
2021/12/13 08:39:49;;;;;;;28.80;16.35;;;;;;;;;;5062168;28;20060;-73
2021/12/13 08:42:18;;;;;;;28.60;16.42;;;;;;;;;;5073209;28;20053;-73
2021/12/13 08:44:56;;;;;;;32.42;16.48;;;;;;;;;;5073630;28;20060;-74
2021/12/13 08:47:25;;;;;;;25.23;16.92;;;;;;;;;;5072143;28;20053;-72
2021/12/13 08:49:53;;;;;;;28.13;17.33;;;;;;;;;;5074029;28;20051;-71
2021/12/13 08:52:25;;;;;;;30.83;16.63;;;;;;;;;;5076495;28;20049;-72
2021/12/13 08:55:10;;;;;;;26.48;15.43;;;;;;;;;;5070575;28;20057;-72
2021/12/13 08:57:39;;;;;;;30.13;16.17;;;;;;;;;;5071775;28;20045;-73
2021/12/13 09:00:12;;;;;;;27.48;16.15;;;;;;;;;;5077309;28;20055;-71
2021/12/13 09:02:41;;;;;;;24.42;14.90;;;;;;;;;;5086204;28;20040;-72
2021/12/13 09:05:10;;;;;;;27.60;17.38;;;;;;;;;;5092414;28;20135;-73
2021/12/13 09:07:46;;;;;;;32.50;16.83;;;;;;;;;;5090450;28;20052;-71
2021/12/13 09:10:12;;;;;;;25.63;15.93;;;;;;;;;;5108028;28;20052;-72
2021/12/13 09:12:45;;;;;;;28.90;16.50;;;;;;;;;;5066593;28;20505;-73
2021/12/13 09:15:18;;;;;;;25.25;15.68;;;;;;;;;;5052582;28;20496;-70
2021/12/13 09:17:47;;;;;;;26.90;16.95;;;;;;;;;;5084355;28;20135;-72
2021/12/13 09:20:16;;;;;;;23.92;14.73;;;;;;;;;;5078062;28;20510;-71
2021/12/13 09:22:45;;;;;;;26.20;15.45;;;;;;;;;;5071668;28;20061;-70
2021/12/13 09:25:12;;;;;;;26.17;15.18;;;;;;;;;;5070032;28;20064;-72
2021/12/13 09:27:41;;;;;;;27.20;16.52;;;;;;;;;;5074501;28;20052;-71
2021/12/13 09:30:19;;;;;;;26.02;15.45;;;;;;;;;;5071352;28;20049;-72
2021/12/13 09:32:46;;;;;;;24.65;14.25;;;;;;;;;;5061369;28;20096;-71
2021/12/13 09:35:18;;;;;;;25.17;15.73;;;;;;;;;;5070371;28;20049;-75
2021/12/13 09:37:46;;;;;;;24.10;14.07;;;;;;;;;;5071366;28;20053;-73
2021/12/13 09:40:13;;;;;;;25.17;14.40;;;;;;;;;;5070310;28;20056;-73
2021/12/13 09:42:47;;;;;;;25.75;15.25;;;;;;;;;;5070355;28;20543;-70
2021/12/13 09:45:19;;;;;;;25.00;14.95;;;;;;;;;;5070219;28;20049;-69
2021/12/13 09:47:46;;;;;;;21.88;14.55;;;;;;;;;;5071852;28;20090;-69
2021/12/13 09:50:16;;;;;;;26.58;14.77;;;;;;;;;;5073020;28;20053;-71
2021/12/13 09:52:47;;;;;;;23.23;14.23;;;;;;;;;;5072575;28;20083;-71
2021/12/13 09:55:16;;;;;;;20.77;13.90;;;;;;;;;;5068211;28;20059;-72
2021/12/13 09:57:52;;;;;;;24.80;14.52;;;;;;;;;;5070220;28;20045;-69
2021/12/13 10:00:25;;;;;;;21.85;13.43;;;;;;;;;;5069652;28;20600;-73
2021/12/13 10:02:54;;;;;;;26.73;14.95;;;;;;;;;;5071290;28;20059;-72
2021/12/13 10:05:23;;;;;;;23.95;14.50;;;;;;;;;;5066282;28;20046;-72
2021/12/13 10:07:53;;;;;;;22.77;13.63;;;;;;;;;;5077404;28;20049;-72
2021/12/13 10:10:23;;;;;;;24.50;14.38;;;;;;;;;;5072974;28;20842;-71
2021/12/13 10:12:52;;;;;;;21.63;12.43;;;;;;;;;;5068221;28;20049;-71
2021/12/13 10:15:23;;;;;;;20.77;12.68;;;;;;;;;;5070907;28;20064;-72
2021/12/13 10:17:50;;;;;;;24.40;13.95;;;;;;;;;;5069407;28;20195;-73
2021/12/13 10:20:19;;;;;;;22.13;12.70;;;;;;;;;;5073395;28;20057;-73
2021/12/13 10:22:47;;;;;;;19.35;12.55;;;;;;;;;;5075035;28;20524;-71
2021/12/13 10:25:19;;;;;;;20.08;13.02;;;;;;;;;;5068597;28;20057;-71
2021/12/13 10:27:46;;;;;;;20.27;13.38;;;;;;;;;;5070760;28;20088;-72
2021/12/13 10:30:15;;;;;;;20.08;13.23;;;;;;;;;;5065266;28;20501;-71
2021/12/13 10:32:42;;;;;;;19.63;11.82;;;;;;;;;;5069879;28;20102;-71
2021/12/13 10:35:16;;;;;;;18.80;12.32;;;;;;;;;;5070998;28;20144;-72
2021/12/13 10:37:46;;;;;;;22.27;12.50;;;;;;;;;;5070873;28;20127;-72
2021/12/13 10:40:18;;;;;;;23.90;13.15;;;;;;;;;;5066714;28;20501;-71
2021/12/13 10:42:51;;;;;;;18.67;11.93;;;;;;;;;;5071478;28;20140;-71
2021/12/13 10:45:21;;;;;;;22.05;12.70;;;;;;;;;;5076539;28;20128;-70
2021/12/13 10:47:49;;;;;;;21.13;12.93;;;;;;;;;;5067997;28;20053;-70
2021/12/13 10:50:21;;;;;;;20.23;11.32;;;;;;;;;;5070821;28;20598;-70
2021/12/13 10:52:51;;;;;;;21.90;11.27;;;;;;;;;;5070768;28;20183;-70
2021/12/13 10:55:21;;;;;;;21.05;11.27;;;;;;;;;;5073702;28;20053;-70
2021/12/13 10:57:49;;;;;;;22.50;11.48;;;;;;;;;;5069259;28;20155;-71
2021/12/13 11:00:18;;;;;;;18.77;11.52;;;;;;;;;;5069569;28;20053;-70
2021/12/13 11:02:45;;;;;;;20.88;11.63;;;;;;;;;;5069137;28;20073;-70
2021/12/13 11:05:14;;;;;;;23.02;11.65;;;;;;;;;;5072250;28;20057;-71
2021/12/13 11:07:41;;;;;;;17.23;11.40;;;;;;;;;;5072558;28;20439;-71
2021/12/13 11:10:09;;;;;;;20.10;11.45;;;;;;;;;;5063753;28;20053;-71
2021/12/13 11:12:38;;;;;;;20.77;11.25;;;;;;;;;;5067607;28;20124;-69
2021/12/13 11:15:07;;;;;;;15.73;10.65;;;;;;;;;;5060475;28;20068;-71
2021/12/13 11:17:34;;;;;;;16.67;11.43;;;;;;;;;;5074184;28;20053;-70
2021/12/13 11:20:06;;;;;;;17.23;10.75;;;;;;;;;;5062223;28;20057;-72
2021/12/13 11:22:33;;;;;;;17.55;11.27;;;;;;;;;;5069643;28;20190;-69
2021/12/13 11:25:03;;;;;;;15.55;11.13;;;;;;;;;;5073068;28;20055;-71
2021/12/13 11:27:31;;;;;;;15.00;10.68;;;;;;;;;;5073170;28;20057;-73
2021/12/13 11:29:59;;;;;;;17.38;10.02;;;;;;;;;;5072601;28;20514;-72
2021/12/13 11:32:34;;;;;;;16.13;9.85;;;;;;;;;;5072762;28;20060;-72
2021/12/13 11:35:06;;;;;;;20.63;10.90;;;;;;;;;;5069071;28;20632;-71
2021/12/13 11:37:45;;;;;;;18.63;11.18;;;;;;;;;;5065110;28;20561;-71
2021/12/13 11:40:24;;;;;;;17.55;10.70;;;;;;;;;;5076767;28;20483;-71
2021/12/13 11:43:03;;;;;;;19.25;11.25;;;;;;;;;;5075926;28;20059;-70
2021/12/13 11:45:44;;;;;;;16.77;10.07;;;;;;;;;;5075076;28;20053;-72
2021/12/13 11:48:29;;;;;;;14.13;9.90;;;;;;;;;;5073507;28;20068;-71
2021/12/13 11:51:14;;;;;;;17.27;10.80;;;;;;;;;;5073316;28;20127;-70
2021/12/13 11:53:59;;;;;;;16.53;10.03;;;;;;;;;;5051321;28;20065;-71
2021/12/13 11:56:34;;;;;;;16.65;9.98;;;;;;;;;;5053441;28;20296;-71
2021/12/13 11:59:13;;;;;;;14.98;9.32;;;;;;;;;;5065645;28;20144;-70
2021/12/13 12:02:01;;;;;;;15.77;10.60;;;;;;;;;;5072722;28;20082;-70
2021/12/13 12:04:46;;;;;;;15.25;9.77;;;;;;;;;;5073963;28;20056;-70
2021/12/13 12:07:12;;;;;;;18.85;10.02;;;;;;;;;;5063819;28;20505;-71
2021/12/13 12:09:51;;;;;;;12.63;8.93;;;;;;;;;;5067712;28;20048;-70
2021/12/13 12:12:45;;;;;;;16.20;10.20;;;;;;;;;;5072646;28;20515;-70
2021/12/13 12:15:12;;;;;;;16.10;9.52;;;;;;;;;;5070162;28;20678;-71
2021/12/13 12:17:39;;;;;;;15.05;9.65;;;;;;;;;;5070049;28;20144;-70
2021/12/13 12:20:10;;;;;;;15.32;8.77;;;;;;;;;;5061705;28;20057;-71
2021/12/13 12:22:56;;;;;;;16.98;9.80;;;;;;;;;;5067324;28;20139;-70
2021/12/13 12:25:25;;;;;;;13.23;8.80;;;;;;;;;;5072407;28;20048;-70
2021/12/13 12:27:59;;;;;;;15.98;9.23;;;;;;;;;;5071002;28;20052;-71
2021/12/13 12:30:27;;;;;;;14.98;8.85;;;;;;;;;;5072500;28;20053;-71
2021/12/13 12:32:55;;;;;;;14.65;9.48;;;;;;;;;;5064565;28;20118;-71
2021/12/13 12:35:24;;;;;;;14.85;8.80;;;;;;;;;;5070604;28;20049;-71
2021/12/13 12:37:56;;;;;;;15.10;8.65;;;;;;;;;;5072131;28;20075;-71
2021/12/13 12:40:28;;;;;;;14.23;9.00;;;;;;;;;;5071417;28;20111;-69
2021/12/13 12:42:59;;;;;;;13.40;8.90;;;;;;;;;;5073739;28;20040;-73
2021/12/13 12:45:28;;;;;;;16.73;8.93;;;;;;;;;;5058646;28;20516;-71
2021/12/13 12:47:57;;;;;;;15.18;8.80;;;;;;;;;;5072311;28;20053;-70
2021/12/13 12:50:32;;;;;;;13.52;8.65;;;;;;;;;;5083425;28;20056;-70
2021/12/13 12:53:01;;;;;;;13.38;8.40;;;;;;;;;;5071105;28;20530;-71
2021/12/13 12:55:33;;;;;;;13.10;8.27;;;;;;;;;;5064390;28;20524;-71
2021/12/13 12:58:05;;;;;;;15.05;8.82;;;;;;;;;;5072778;28;20049;-71
2021/12/13 13:00:32;;;;;;;12.48;7.97;;;;;;;;;;5073860;28;20053;-70
2021/12/13 13:02:58;;;;;;;16.67;8.55;;;;;;;;;;5073756;28;20061;-70
2021/12/13 13:05:27;;;;;;;13.55;8.20;;;;;;;;;;5076531;28;20095;-71
2021/12/13 13:07:54;;;;;;;15.57;9.23;;;;;;;;;;5085400;28;20057;-70
2021/12/13 13:10:25;;;;;;;16.88;9.23;;;;;;;;;;5065740;28;20064;-70
2021/12/13 13:12:56;;;;;;;15.85;8.27;;;;;;;;;;5071221;28;20151;-69
2021/12/13 13:15:33;;;;;;;12.52;8.82;;;;;;;;;;5071158;28;20049;-71
2021/12/13 13:18:08;;;;;;;12.90;8.70;;;;;;;;;;5071529;28;20567;-71
2021/12/13 13:20:41;;;;;;;15.52;9.20;;;;;;;;;;5070682;28;20080;-73
2021/12/13 13:23:09;;;;;;;14.70;8.68;;;;;;;;;;5073393;28;20149;-72
2021/12/13 13:25:38;;;;;;;14.40;9.90;;;;;;;;;;5072700;28;20055;-71
2021/12/13 13:28:13;;;;;;;13.27;8.90;;;;;;;;;;5067928;28;20517;-71
2021/12/13 13:30:41;;;;;;;13.00;8.35;;;;;;;;;;5064776;28;20053;-71
2021/12/13 13:33:09;;;;;;;18.10;8.38;;;;;;;;;;5065666;28;20053;-70
2021/12/13 13:35:36;;;;;;;13.00;8.13;;;;;;;;;;5061112;28;20049;-69
2021/12/13 13:38:04;;;;;;;12.93;8.35;;;;;;;;;;5070871;28;20052;-69
2021/12/13 13:40:31;;;;;;;16.27;8.93;;;;;;;;;;5070489;28;20057;-69
2021/12/13 13:43:03;;;;;;;13.20;8.93;;;;;;;;;;5071185;28;20044;-69
2021/12/13 13:45:33;;;;;;;14.25;8.52;;;;;;;;;;5071384;28;20049;-70
2021/12/13 13:48:15;;;;;;;16.00;8.60;;;;;;;;;;5076475;28;20052;-70
2021/12/13 13:50:46;;;;;;;12.68;7.82;;;;;;;;;;5078456;28;20061;-71
2021/12/13 13:53:18;;;;;;;18.77;9.00;;;;;;;;;;5070330;28;20052;-69
2021/12/13 13:55:53;;;;;;;14.85;9.05;;;;;;;;;;5070408;28;20048;-70
2021/12/13 13:58:23;;;;;;;15.75;8.88;;;;;;;;;;5071178;28;20141;-71
2021/12/13 14:01:13;;;;;;;13.23;7.90;;;;;;;;;;5076135;28;20103;-70
2021/12/13 14:03:42;;;;;;;13.52;8.05;;;;;;;;;;5065514;28;20489;-70
2021/12/13 14:06:10;;;;;;;10.65;7.72;;;;;;;;;;5069308;28;20060;-71
2021/12/13 14:08:38;;;;;;;11.77;8.00;;;;;;;;;;5070889;28;20937;-72
2021/12/13 14:11:09;;;;;;;15.00;7.78;;;;;;;;;;5071220;28;20136;-71
2021/12/13 14:13:36;;;;;;;16.45;8.57;;;;;;;;;;5072289;28;20091;-72
2021/12/13 14:16:08;;;;;;;11.95;7.50;;;;;;;;;;5074383;28;20055;-71
2021/12/13 14:18:34;;;;;;;13.75;7.68;;;;;;;;;;5073650;28;20114;-71
2021/12/13 14:21:03;;;;;;;12.65;8.43;;;;;;;;;;5072487;28;20056;-71
2021/12/13 14:23:35;;;;;;;11.32;8.35;;;;;;;;;;5069143;28;20055;-70
2021/12/13 14:26:01;;;;;;;14.05;8.43;;;;;;;;;;5069404;28;20057;-72
2021/12/13 14:28:40;;;;;;;12.07;8.68;;;;;;;;;;5070630;28;20060;-72
2021/12/13 14:31:09;;;;;;;12.02;8.32;;;;;;;;;;5070144;28;20049;-73
2021/12/13 14:33:43;;;;;;;13.55;7.60;;;;;;;;;;5076010;28;20140;-70
2021/12/13 14:36:10;;;;;;;12.75;8.63;;;;;;;;;;5081416;28;20060;-69
2021/12/13 14:38:37;;;;;;;12.15;7.80;;;;;;;;;;5056975;28;20061;-69
2021/12/13 14:41:06;;;;;;;14.10;7.85;;;;;;;;;;5068378;28;20139;-69
2021/12/13 14:43:40;;;;;;;14.25;8.23;;;;;;;;;;5073646;28;20049;-69
2021/12/13 14:46:12;;;;;;;13.88;8.77;;;;;;;;;;5074158;28;20055;-69
2021/12/13 14:48:40;;;;;;;12.15;8.32;;;;;;;;;;5074057;28;20532;-68
2021/12/13 14:51:09;;;;;;;11.55;7.38;;;;;;;;;;5078131;28;20045;-66
2021/12/13 14:53:37;;;;;;;18.20;9.25;;;;;;;;;;5071557;28;20055;-69